sensor_id;sensor_type;location;lat;lon;timestamp;P1;durP1;ratioP1;P2;durP2;ratioP2
6832;SDS011;3454;42.654;23.378;2024-02-04T00:01:49;2.97;;;1.80;;
6832;SDS011;3454;42.654;23.378;2024-02-04T00:04:14;3.10;;;2.10;;
6832;SDS011;3454;42.654;23.378;2024-02-04T00:06:40;2.90;;;2.20;;
6832;SDS011;3454;42.654;23.378;2024-02-04T00:09:06;3.53;;;2.00;;
6832;SDS011;3454;42.654;23.378;2024-02-04T00:11:31;2.97;;;2.30;;
6832;SDS011;3454;42.654;23.378;2024-02-04T00:13:59;3.63;;;2.77;;
6832;SDS011;3454;42.654;23.378;2024-02-04T00:16:25;2.70;;;2.07;;
6832;SDS011;3454;42.654;23.378;2024-02-04T00:18:50;3.47;;;2.47;;
6832;SDS011;3454;42.654;23.378;2024-02-04T00:21:16;3.50;;;2.53;;
6832;SDS011;3454;42.654;23.378;2024-02-04T00:23:42;2.60;;;2.10;;
6832;SDS011;3454;42.654;23.378;2024-02-04T00:26:07;5.63;;;2.43;;
6832;SDS011;3454;42.654;23.378;2024-02-04T00:28:33;3.37;;;3.00;;
6832;SDS011;3454;42.654;23.378;2024-02-04T00:30:58;3.80;;;2.90;;
6832;SDS011;3454;42.654;23.378;2024-02-04T00:33:24;3.00;;;2.23;;
6832;SDS011;3454;42.654;23.378;2024-02-04T00:35:50;3.80;;;2.23;;
6832;SDS011;3454;42.654;23.378;2024-02-04T00:38:16;3.70;;;2.73;;
6832;SDS011;3454;42.654;23.378;2024-02-04T00:40:42;3.97;;;2.67;;
6832;SDS011;3454;42.654;23.378;2024-02-04T00:43:08;3.47;;;2.50;;
6832;SDS011;3454;42.654;23.378;2024-02-04T00:45:33;4.53;;;2.60;;
6832;SDS011;3454;42.654;23.378;2024-02-04T00:47:59;3.90;;;2.50;;
6832;SDS011;3454;42.654;23.378;2024-02-04T00:50:24;4.13;;;2.93;;
6832;SDS011;3454;42.654;23.378;2024-02-04T00:52:50;4.20;;;2.07;;
6832;SDS011;3454;42.654;23.378;2024-02-04T00:55:18;2.87;;;2.27;;
6832;SDS011;3454;42.654;23.378;2024-02-04T00:57:44;3.50;;;2.50;;
6832;SDS011;3454;42.654;23.378;2024-02-04T01:00:10;4.60;;;2.43;;
6832;SDS011;3454;42.654;23.378;2024-02-04T01:02:38;2.80;;;2.13;;
6832;SDS011;3454;42.654;23.378;2024-02-04T01:05:03;2.40;;;2.10;;
6832;SDS011;3454;42.654;23.378;2024-02-04T01:07:29;3.73;;;2.40;;
6832;SDS011;3454;42.654;23.378;2024-02-04T01:09:55;3.40;;;2.10;;
6832;SDS011;3454;42.654;23.378;2024-02-04T01:12:20;4.70;;;2.73;;
6832;SDS011;3454;42.654;23.378;2024-02-04T01:14:46;3.20;;;2.40;;
6832;SDS011;3454;42.654;23.378;2024-02-04T01:17:11;3.73;;;2.03;;
6832;SDS011;3454;42.654;23.378;2024-02-04T01:19:37;3.50;;;2.10;;
6832;SDS011;3454;42.654;23.378;2024-02-04T01:22:03;3.53;;;2.37;;
6832;SDS011;3454;42.654;23.378;2024-02-04T01:24:28;3.67;;;1.87;;
6832;SDS011;3454;42.654;23.378;2024-02-04T01:26:56;4.87;;;2.47;;
6832;SDS011;3454;42.654;23.378;2024-02-04T01:29:21;3.43;;;2.50;;
6832;SDS011;3454;42.654;23.378;2024-02-04T01:31:47;3.07;;;2.43;;
6832;SDS011;3454;42.654;23.378;2024-02-04T01:34:13;3.23;;;2.30;;
6832;SDS011;3454;42.654;23.378;2024-02-04T01:36:38;3.20;;;2.30;;
6832;SDS011;3454;42.654;23.378;2024-02-04T01:39:04;5.20;;;3.53;;
6832;SDS011;3454;42.654;23.378;2024-02-04T01:41:30;2.87;;;1.90;;
6832;SDS011;3454;42.654;23.378;2024-02-04T01:43:56;5.90;;;2.47;;
6832;SDS011;3454;42.654;23.378;2024-02-04T01:46:28;2.50;;;2.20;;
6832;SDS011;3454;42.654;23.378;2024-02-04T01:48:54;2.40;;;2.00;;
6832;SDS011;3454;42.654;23.378;2024-02-04T01:51:20;3.17;;;1.90;;
6832;SDS011;3454;42.654;23.378;2024-02-04T01:53:46;3.80;;;2.30;;
6832;SDS011;3454;42.654;23.378;2024-02-04T01:56:13;5.70;;;2.70;;
6832;SDS011;3454;42.654;23.378;2024-02-04T01:58:39;2.83;;;2.00;;
6832;SDS011;3454;42.654;23.378;2024-02-04T02:01:05;3.03;;;2.20;;
6832;SDS011;3454;42.654;23.378;2024-02-04T02:03:31;3.23;;;2.03;;
6832;SDS011;3454;42.654;23.378;2024-02-04T02:05:57;2.80;;;1.90;;
6832;SDS011;3454;42.654;23.378;2024-02-04T02:08:24;2.27;;;1.83;;
6832;SDS011;3454;42.654;23.378;2024-02-04T02:10:51;2.63;;;1.80;;
6832;SDS011;3454;42.654;23.378;2024-02-04T02:13:28;6.53;;;2.33;;
6832;SDS011;3454;42.654;23.378;2024-02-04T02:15:58;2.47;;;1.70;;
6832;SDS011;3454;42.654;23.378;2024-02-04T02:18:38;4.50;;;2.20;;
6832;SDS011;3454;42.654;23.378;2024-02-04T02:26:48;4.00;;;1.93;;
6832;SDS011;3454;42.654;23.378;2024-02-04T02:29:15;4.70;;;1.90;;
6832;SDS011;3454;42.654;23.378;2024-02-04T02:31:41;2.67;;;1.93;;
6832;SDS011;3454;42.654;23.378;2024-02-04T02:34:08;4.90;;;2.17;;
6832;SDS011;3454;42.654;23.378;2024-02-04T02:36:37;4.87;;;2.30;;
6832;SDS011;3454;42.654;23.378;2024-02-04T02:39:27;2.47;;;1.63;;
6832;SDS011;3454;42.654;23.378;2024-02-04T02:42:01;4.07;;;1.87;;
6832;SDS011;3454;42.654;23.378;2024-02-04T02:44:29;2.13;;;1.80;;
6832;SDS011;3454;42.654;23.378;2024-02-04T02:46:57;3.67;;;1.80;;
6832;SDS011;3454;42.654;23.378;2024-02-04T02:49:23;4.40;;;2.17;;
6832;SDS011;3454;42.654;23.378;2024-02-04T02:51:49;2.60;;;2.00;;
6832;SDS011;3454;42.654;23.378;2024-02-04T02:54:15;1.73;;;1.63;;
6832;SDS011;3454;42.654;23.378;2024-02-04T02:56:40;3.00;;;2.13;;
6832;SDS011;3454;42.654;23.378;2024-02-04T02:59:06;3.37;;;2.10;;
6832;SDS011;3454;42.654;23.378;2024-02-04T03:01:32;2.13;;;1.87;;
6832;SDS011;3454;42.654;23.378;2024-02-04T03:03:58;2.27;;;2.07;;
6832;SDS011;3454;42.654;23.378;2024-02-04T03:06:24;4.17;;;1.90;;
6832;SDS011;3454;42.654;23.378;2024-02-04T03:08:49;3.53;;;2.20;;
6832;SDS011;3454;42.654;23.378;2024-02-04T03:11:15;2.57;;;1.97;;
6832;SDS011;3454;42.654;23.378;2024-02-04T03:13:40;1.67;;;1.57;;
6832;SDS011;3454;42.654;23.378;2024-02-04T03:16:10;3.37;;;1.97;;
6832;SDS011;3454;42.654;23.378;2024-02-04T03:18:38;2.60;;;2.00;;
6832;SDS011;3454;42.654;23.378;2024-02-04T03:21:11;3.07;;;1.73;;
6832;SDS011;3454;42.654;23.378;2024-02-04T03:23:37;2.83;;;2.03;;
6832;SDS011;3454;42.654;23.378;2024-02-04T03:26:03;2.40;;;1.73;;
6832;SDS011;3454;42.654;23.378;2024-02-04T03:28:28;5.27;;;1.73;;
6832;SDS011;3454;42.654;23.378;2024-02-04T03:30:54;2.93;;;1.93;;
6832;SDS011;3454;42.654;23.378;2024-02-04T03:33:19;2.37;;;1.67;;
6832;SDS011;3454;42.654;23.378;2024-02-04T03:35:45;2.77;;;1.90;;
6832;SDS011;3454;42.654;23.378;2024-02-04T03:38:10;3.00;;;1.80;;
6832;SDS011;3454;42.654;23.378;2024-02-04T03:40:36;1.83;;;1.70;;
6832;SDS011;3454;42.654;23.378;2024-02-04T03:43:01;1.53;;;1.37;;
6832;SDS011;3454;42.654;23.378;2024-02-04T03:45:27;2.77;;;1.80;;
6832;SDS011;3454;42.654;23.378;2024-02-04T03:47:53;3.53;;;1.50;;
6832;SDS011;3454;42.654;23.378;2024-02-04T03:50:19;2.33;;;1.80;;
6832;SDS011;3454;42.654;23.378;2024-02-04T03:52:45;2.00;;;1.30;;
6832;SDS011;3454;42.654;23.378;2024-02-04T03:55:10;2.20;;;1.43;;
6832;SDS011;3454;42.654;23.378;2024-02-04T03:57:36;2.57;;;1.40;;
6832;SDS011;3454;42.654;23.378;2024-02-04T04:00:01;2.00;;;1.40;;
6832;SDS011;3454;42.654;23.378;2024-02-04T04:02:28;2.00;;;1.53;;
6832;SDS011;3454;42.654;23.378;2024-02-04T04:04:53;1.43;;;1.33;;
6832;SDS011;3454;42.654;23.378;2024-02-04T04:07:19;1.40;;;1.20;;
6832;SDS011;3454;42.654;23.378;2024-02-04T04:09:44;5.13;;;2.13;;
6832;SDS011;3454;42.654;23.378;2024-02-04T04:12:10;3.33;;;1.60;;
6832;SDS011;3454;42.654;23.378;2024-02-04T04:14:35;1.83;;;1.27;;
6832;SDS011;3454;42.654;23.378;2024-02-04T04:17:01;3.33;;;1.53;;
6832;SDS011;3454;42.654;23.378;2024-02-04T04:19:26;2.20;;;1.37;;
6832;SDS011;3454;42.654;23.378;2024-02-04T04:21:52;1.77;;;1.63;;
6832;SDS011;3454;42.654;23.378;2024-02-04T04:24:19;1.63;;;1.53;;
6832;SDS011;3454;42.654;23.378;2024-02-04T04:26:47;2.47;;;1.80;;
6832;SDS011;3454;42.654;23.378;2024-02-04T04:29:12;1.53;;;1.23;;
6832;SDS011;3454;42.654;23.378;2024-02-04T04:31:38;2.17;;;1.67;;
6832;SDS011;3454;42.654;23.378;2024-02-04T04:34:03;1.80;;;1.47;;
6832;SDS011;3454;42.654;23.378;2024-02-04T04:36:29;3.80;;;2.00;;
6832;SDS011;3454;42.654;23.378;2024-02-04T04:38:54;3.43;;;1.63;;
6832;SDS011;3454;42.654;23.378;2024-02-04T04:41:20;1.70;;;1.47;;
6832;SDS011;3454;42.654;23.378;2024-02-04T04:43:46;3.50;;;1.70;;
6832;SDS011;3454;42.654;23.378;2024-02-04T04:46:11;2.50;;;1.60;;
6832;SDS011;3454;42.654;23.378;2024-02-04T04:48:37;2.63;;;1.20;;
6832;SDS011;3454;42.654;23.378;2024-02-04T04:51:02;1.47;;;1.30;;
6832;SDS011;3454;42.654;23.378;2024-02-04T04:53:28;2.83;;;1.67;;
6832;SDS011;3454;42.654;23.378;2024-02-04T04:55:53;1.70;;;1.40;;
6832;SDS011;3454;42.654;23.378;2024-02-04T04:58:19;2.27;;;1.53;;
6832;SDS011;3454;42.654;23.378;2024-02-04T05:00:45;2.30;;;1.67;;
6832;SDS011;3454;42.654;23.378;2024-02-04T05:03:11;2.07;;;1.47;;
6832;SDS011;3454;42.654;23.378;2024-02-04T05:05:36;3.63;;;1.40;;
6832;SDS011;3454;42.654;23.378;2024-02-04T05:08:02;3.63;;;1.87;;
6832;SDS011;3454;42.654;23.378;2024-02-04T05:10:29;1.93;;;1.60;;
6832;SDS011;3454;42.654;23.378;2024-02-04T05:12:54;1.77;;;1.30;;
6832;SDS011;3454;42.654;23.378;2024-02-04T05:15:20;2.13;;;1.33;;
6832;SDS011;3454;42.654;23.378;2024-02-04T05:17:46;2.30;;;1.43;;
6832;SDS011;3454;42.654;23.378;2024-02-04T05:20:11;1.73;;;1.43;;
6832;SDS011;3454;42.654;23.378;2024-02-04T05:22:37;5.00;;;1.83;;
6832;SDS011;3454;42.654;23.378;2024-02-04T05:25:03;3.90;;;1.57;;
6832;SDS011;3454;42.654;23.378;2024-02-04T05:27:38;1.73;;;1.60;;
6832;SDS011;3454;42.654;23.378;2024-02-04T05:30:03;2.10;;;1.60;;
6832;SDS011;3454;42.654;23.378;2024-02-04T05:32:29;1.63;;;1.50;;
6832;SDS011;3454;42.654;23.378;2024-02-04T05:34:55;2.20;;;1.40;;
6832;SDS011;3454;42.654;23.378;2024-02-04T05:37:20;4.03;;;1.40;;
6832;SDS011;3454;42.654;23.378;2024-02-04T05:39:47;1.93;;;1.33;;
6832;SDS011;3454;42.654;23.378;2024-02-04T05:42:12;2.57;;;1.47;;
6832;SDS011;3454;42.654;23.378;2024-02-04T05:44:38;1.90;;;1.73;;
6832;SDS011;3454;42.654;23.378;2024-02-04T05:47:03;2.17;;;1.93;;
6832;SDS011;3454;42.654;23.378;2024-02-04T05:49:29;2.60;;;1.77;;
6832;SDS011;3454;42.654;23.378;2024-02-04T05:51:55;3.67;;;1.80;;
6832;SDS011;3454;42.654;23.378;2024-02-04T05:54:20;3.43;;;1.77;;
6832;SDS011;3454;42.654;23.378;2024-02-04T05:56:46;3.87;;;1.53;;
6832;SDS011;3454;42.654;23.378;2024-02-04T05:59:11;2.73;;;1.70;;
6832;SDS011;3454;42.654;23.378;2024-02-04T06:01:55;3.73;;;1.80;;
6832;SDS011;3454;42.654;23.378;2024-02-04T06:04:21;3.60;;;2.10;;
6832;SDS011;3454;42.654;23.378;2024-02-04T06:06:47;4.43;;;2.30;;
6832;SDS011;3454;42.654;23.378;2024-02-04T06:09:12;2.80;;;1.83;;
6832;SDS011;3454;42.654;23.378;2024-02-04T06:11:38;3.30;;;1.70;;
6832;SDS011;3454;42.654;23.378;2024-02-04T06:14:04;2.60;;;1.70;;
6832;SDS011;3454;42.654;23.378;2024-02-04T06:16:30;4.00;;;2.13;;
6832;SDS011;3454;42.654;23.378;2024-02-04T06:18:55;1.53;;;1.43;;
6832;SDS011;3454;42.654;23.378;2024-02-04T06:21:23;5.37;;;2.83;;
6832;SDS011;3454;42.654;23.378;2024-02-04T06:23:49;7.63;;;3.07;;
6832;SDS011;3454;42.654;23.378;2024-02-04T06:26:14;2.20;;;2.00;;
6832;SDS011;3454;42.654;23.378;2024-02-04T06:28:40;4.97;;;2.27;;
6832;SDS011;3454;42.654;23.378;2024-02-04T06:31:09;3.67;;;2.00;;
6832;SDS011;3454;42.654;23.378;2024-02-04T06:33:35;3.30;;;2.20;;
6832;SDS011;3454;42.654;23.378;2024-02-04T06:36:02;4.07;;;2.57;;
6832;SDS011;3454;42.654;23.378;2024-02-04T06:38:28;5.37;;;3.13;;
6832;SDS011;3454;42.654;23.378;2024-02-04T06:40:54;2.20;;;1.70;;
6832;SDS011;3454;42.654;23.378;2024-02-04T06:43:19;3.57;;;2.60;;
6832;SDS011;3454;42.654;23.378;2024-02-04T06:45:45;3.40;;;2.03;;
6832;SDS011;3454;42.654;23.378;2024-02-04T06:48:11;4.07;;;2.23;;
6832;SDS011;3454;42.654;23.378;2024-02-04T06:50:36;5.43;;;2.10;;
6832;SDS011;3454;42.654;23.378;2024-02-04T06:53:02;2.50;;;1.77;;
6832;SDS011;3454;42.654;23.378;2024-02-04T06:55:28;3.67;;;2.00;;
6832;SDS011;3454;42.654;23.378;2024-02-04T06:57:53;1.90;;;1.67;;
6832;SDS011;3454;42.654;23.378;2024-02-04T07:00:19;2.17;;;1.87;;
6832;SDS011;3454;42.654;23.378;2024-02-04T07:02:46;3.13;;;2.03;;
6832;SDS011;3454;42.654;23.378;2024-02-04T07:05:12;2.23;;;1.37;;
6832;SDS011;3454;42.654;23.378;2024-02-04T07:07:38;3.07;;;2.30;;
6832;SDS011;3454;42.654;23.378;2024-02-04T07:10:04;3.03;;;1.93;;
6832;SDS011;3454;42.654;23.378;2024-02-04T07:12:31;5.33;;;2.03;;
6832;SDS011;3454;42.654;23.378;2024-02-04T07:14:57;2.23;;;1.80;;
6832;SDS011;3454;42.654;23.378;2024-02-04T07:17:22;2.33;;;1.57;;
6832;SDS011;3454;42.654;23.378;2024-02-04T07:19:48;3.13;;;2.10;;
6832;SDS011;3454;42.654;23.378;2024-02-04T07:22:14;3.73;;;1.60;;
6832;SDS011;3454;42.654;23.378;2024-02-04T07:24:40;1.83;;;1.67;;
6832;SDS011;3454;42.654;23.378;2024-02-04T07:27:06;2.93;;;2.17;;
6832;SDS011;3454;42.654;23.378;2024-02-04T07:29:31;2.63;;;2.00;;
6832;SDS011;3454;42.654;23.378;2024-02-04T07:31:57;2.90;;;2.13;;
6832;SDS011;3454;42.654;23.378;2024-02-04T07:34:23;3.67;;;2.00;;
6832;SDS011;3454;42.654;23.378;2024-02-04T07:36:49;3.13;;;2.03;;
6832;SDS011;3454;42.654;23.378;2024-02-04T07:39:17;1.97;;;1.60;;
6832;SDS011;3454;42.654;23.378;2024-02-04T07:41:44;3.33;;;2.20;;
6832;SDS011;3454;42.654;23.378;2024-02-04T07:44:14;2.37;;;1.90;;
6832;SDS011;3454;42.654;23.378;2024-02-04T07:46:41;2.40;;;1.57;;
6832;SDS011;3454;42.654;23.378;2024-02-04T07:49:07;7.17;;;3.93;;
6832;SDS011;3454;42.654;23.378;2024-02-04T07:51:36;3.93;;;2.10;;
6832;SDS011;3454;42.654;23.378;2024-02-04T07:54:11;3.53;;;2.43;;
6832;SDS011;3454;42.654;23.378;2024-02-04T07:56:37;2.30;;;1.83;;
6832;SDS011;3454;42.654;23.378;2024-02-04T07:59:03;4.17;;;1.77;;
6832;SDS011;3454;42.654;23.378;2024-02-04T08:01:32;2.30;;;1.80;;
6832;SDS011;3454;42.654;23.378;2024-02-04T08:03:58;4.57;;;1.70;;
6832;SDS011;3454;42.654;23.378;2024-02-04T08:06:24;2.27;;;1.80;;
6832;SDS011;3454;42.654;23.378;2024-02-04T08:08:52;3.47;;;2.10;;
6832;SDS011;3454;42.654;23.378;2024-02-04T08:11:18;4.63;;;2.43;;
6832;SDS011;3454;42.654;23.378;2024-02-04T08:13:45;3.17;;;1.90;;
6832;SDS011;3454;42.654;23.378;2024-02-04T08:16:11;2.53;;;1.77;;
6832;SDS011;3454;42.654;23.378;2024-02-04T08:18:37;2.67;;;1.40;;
6832;SDS011;3454;42.654;23.378;2024-02-04T08:21:03;5.90;;;1.90;;
6832;SDS011;3454;42.654;23.378;2024-02-04T08:23:49;2.60;;;1.80;;
6832;SDS011;3454;42.654;23.378;2024-02-04T08:26:16;4.13;;;2.20;;
6832;SDS011;3454;42.654;23.378;2024-02-04T08:28:45;2.67;;;1.53;;
6832;SDS011;3454;42.654;23.378;2024-02-04T08:31:24;1.97;;;1.20;;
6832;SDS011;3454;42.654;23.378;2024-02-04T08:33:50;4.30;;;2.37;;
6832;SDS011;3454;42.654;23.378;2024-02-04T08:36:18;2.20;;;1.50;;
6832;SDS011;3454;42.654;23.378;2024-02-04T08:38:43;5.87;;;1.47;;
6832;SDS011;3454;42.654;23.378;2024-02-04T08:41:09;2.90;;;1.97;;
6832;SDS011;3454;42.654;23.378;2024-02-04T08:43:35;2.53;;;1.37;;
6832;SDS011;3454;42.654;23.378;2024-02-04T08:46:00;2.50;;;1.40;;
6832;SDS011;3454;42.654;23.378;2024-02-04T08:48:26;3.37;;;1.70;;
6832;SDS011;3454;42.654;23.378;2024-02-04T08:50:52;4.87;;;2.20;;
6832;SDS011;3454;42.654;23.378;2024-02-04T08:53:20;2.33;;;1.40;;
6832;SDS011;3454;42.654;23.378;2024-02-04T08:55:46;2.77;;;1.57;;
6832;SDS011;3454;42.654;23.378;2024-02-04T08:58:12;3.90;;;1.60;;
6832;SDS011;3454;42.654;23.378;2024-02-04T09:00:38;4.30;;;1.40;;
6832;SDS011;3454;42.654;23.378;2024-02-04T09:03:03;3.47;;;1.57;;
6832;SDS011;3454;42.654;23.378;2024-02-04T09:05:29;4.70;;;2.00;;
6832;SDS011;3454;42.654;23.378;2024-02-04T09:07:55;3.20;;;1.40;;
6832;SDS011;3454;42.654;23.378;2024-02-04T09:10:21;2.77;;;1.23;;
6832;SDS011;3454;42.654;23.378;2024-02-04T09:12:47;3.03;;;1.27;;
6832;SDS011;3454;42.654;23.378;2024-02-04T09:15:12;2.77;;;1.47;;
6832;SDS011;3454;42.654;23.378;2024-02-04T09:17:38;1.57;;;1.30;;
6832;SDS011;3454;42.654;23.378;2024-02-04T09:20:05;1.63;;;1.30;;
6832;SDS011;3454;42.654;23.378;2024-02-04T09:22:31;2.43;;;1.13;;
6832;SDS011;3454;42.654;23.378;2024-02-04T09:24:56;1.00;;;1.00;;
6832;SDS011;3454;42.654;23.378;2024-02-04T09:27:22;1.43;;;1.13;;
6832;SDS011;3454;42.654;23.378;2024-02-04T09:29:49;2.43;;;1.40;;
6832;SDS011;3454;42.654;23.378;2024-02-04T09:32:26;2.53;;;1.10;;
6832;SDS011;3454;42.654;23.378;2024-02-04T09:34:51;1.80;;;1.40;;
6832;SDS011;3454;42.654;23.378;2024-02-04T09:37:17;3.17;;;1.60;;
6832;SDS011;3454;42.654;23.378;2024-02-04T09:39:43;1.97;;;1.30;;
6832;SDS011;3454;42.654;23.378;2024-02-04T09:42:08;1.37;;;1.27;;
6832;SDS011;3454;42.654;23.378;2024-02-04T09:44:40;2.17;;;1.33;;
6832;SDS011;3454;42.654;23.378;2024-02-04T09:47:06;1.90;;;1.40;;
6832;SDS011;3454;42.654;23.378;2024-02-04T09:49:33;2.60;;;1.47;;
6832;SDS011;3454;42.654;23.378;2024-02-04T09:52:00;2.03;;;1.40;;
6832;SDS011;3454;42.654;23.378;2024-02-04T09:54:34;5.17;;;1.87;;
6832;SDS011;3454;42.654;23.378;2024-02-04T09:57:24;1.27;;;1.17;;
6832;SDS011;3454;42.654;23.378;2024-02-04T09:59:49;1.57;;;1.37;;
6832;SDS011;3454;42.654;23.378;2024-02-04T10:02:15;2.00;;;1.40;;
6832;SDS011;3454;42.654;23.378;2024-02-04T10:04:41;5.50;;;1.30;;
6832;SDS011;3454;42.654;23.378;2024-02-04T10:07:06;1.47;;;1.30;;
6832;SDS011;3454;42.654;23.378;2024-02-04T10:09:32;1.97;;;1.40;;
6832;SDS011;3454;42.654;23.378;2024-02-04T10:11:57;2.63;;;1.67;;
6832;SDS011;3454;42.654;23.378;2024-02-04T10:14:24;2.40;;;1.60;;
6832;SDS011;3454;42.654;23.378;2024-02-04T10:16:49;3.40;;;1.63;;
6832;SDS011;3454;42.654;23.378;2024-02-04T10:19:15;4.83;;;1.63;;
6832;SDS011;3454;42.654;23.378;2024-02-04T10:21:41;5.07;;;1.50;;
6832;SDS011;3454;42.654;23.378;2024-02-04T10:24:07;3.73;;;1.10;;
6832;SDS011;3454;42.654;23.378;2024-02-04T10:26:33;3.13;;;1.20;;
6832;SDS011;3454;42.654;23.378;2024-02-04T10:29:03;2.37;;;0.90;;
6832;SDS011;3454;42.654;23.378;2024-02-04T10:31:29;1.80;;;1.37;;
6832;SDS011;3454;42.654;23.378;2024-02-04T10:33:54;2.37;;;1.20;;
6832;SDS011;3454;42.654;23.378;2024-02-04T10:36:21;6.20;;;1.70;;
6832;SDS011;3454;42.654;23.378;2024-02-04T10:38:46;1.63;;;1.33;;
6832;SDS011;3454;42.654;23.378;2024-02-04T10:41:15;3.17;;;1.20;;
6832;SDS011;3454;42.654;23.378;2024-02-04T10:43:43;1.00;;;1.00;;
6832;SDS011;3454;42.654;23.378;2024-02-04T10:48:43;1.53;;;0.90;;
6832;SDS011;3454;42.654;23.378;2024-02-04T10:51:12;7.30;;;1.20;;
6832;SDS011;3454;42.654;23.378;2024-02-04T10:53:41;1.80;;;1.00;;
6832;SDS011;3454;42.654;23.378;2024-02-04T10:56:18;1.30;;;1.20;;
6832;SDS011;3454;42.654;23.378;2024-02-04T10:58:47;3.53;;;1.10;;
6832;SDS011;3454;42.654;23.378;2024-02-04T11:01:14;1.10;;;1.00;;
6832;SDS011;3454;42.654;23.378;2024-02-04T11:03:40;3.00;;;1.30;;
6832;SDS011;3454;42.654;23.378;2024-02-04T11:06:07;1.17;;;0.80;;
6832;SDS011;3454;42.654;23.378;2024-02-04T11:08:34;1.63;;;0.93;;
6832;SDS011;3454;42.654;23.378;2024-02-04T11:11:00;1.83;;;1.10;;
6832;SDS011;3454;42.654;23.378;2024-02-04T11:13:25;1.63;;;1.03;;
6832;SDS011;3454;42.654;23.378;2024-02-04T11:15:55;1.60;;;0.97;;
6832;SDS011;3454;42.654;23.378;2024-02-04T11:18:27;2.40;;;1.10;;
6832;SDS011;3454;42.654;23.378;2024-02-04T11:24:17;1.50;;;1.33;;
6832;SDS011;3454;42.654;23.378;2024-02-04T11:27:25;2.03;;;1.50;;
6832;SDS011;3454;42.654;23.378;2024-02-04T11:29:52;1.30;;;1.20;;
6832;SDS011;3454;42.654;23.378;2024-02-04T11:32:18;1.10;;;1.00;;
6832;SDS011;3454;42.654;23.378;2024-02-04T11:34:44;1.27;;;0.80;;
6832;SDS011;3454;42.654;23.378;2024-02-04T11:37:15;1.90;;;1.27;;
6832;SDS011;3454;42.654;23.378;2024-02-04T11:39:50;2.83;;;1.30;;
6832;SDS011;3454;42.654;23.378;2024-02-04T11:42:17;0.93;;;0.73;;
6832;SDS011;3454;42.654;23.378;2024-02-04T11:44:44;2.67;;;0.93;;
6832;SDS011;3454;42.654;23.378;2024-02-04T11:47:10;1.63;;;1.30;;
6832;SDS011;3454;42.654;23.378;2024-02-04T11:49:36;1.20;;;0.90;;
6832;SDS011;3454;42.654;23.378;2024-02-04T11:52:01;1.03;;;0.90;;
6832;SDS011;3454;42.654;23.378;2024-02-04T11:54:27;1.40;;;1.00;;
6832;SDS011;3454;42.654;23.378;2024-02-04T11:56:53;5.13;;;1.30;;
6832;SDS011;3454;42.654;23.378;2024-02-04T11:59:19;1.93;;;0.90;;
6832;SDS011;3454;42.654;23.378;2024-02-04T12:01:48;1.50;;;1.40;;
6832;SDS011;3454;42.654;23.378;2024-02-04T12:04:23;3.30;;;1.10;;
6832;SDS011;3454;42.654;23.378;2024-02-04T12:06:52;0.90;;;0.90;;
6832;SDS011;3454;42.654;23.378;2024-02-04T12:09:18;1.55;;;1.00;;
6832;SDS011;3454;42.654;23.378;2024-02-04T12:11:44;3.72;;;1.00;;
6832;SDS011;3454;42.654;23.378;2024-02-04T12:14:10;3.20;;;1.33;;
6832;SDS011;3454;42.654;23.378;2024-02-04T12:16:37;4.80;;;1.00;;
6832;SDS011;3454;42.654;23.378;2024-02-04T12:19:03;0.83;;;0.83;;
6832;SDS011;3454;42.654;23.378;2024-02-04T12:21:29;2.05;;;1.05;;
6832;SDS011;3454;42.654;23.378;2024-02-04T12:23:55;1.20;;;1.10;;
6832;SDS011;3454;42.654;23.378;2024-02-04T12:26:28;3.13;;;1.02;;
6832;SDS011;3454;42.654;23.378;2024-02-04T12:28:53;1.23;;;0.95;;
6832;SDS011;3454;42.654;23.378;2024-02-04T12:31:21;1.10;;;1.00;;
6832;SDS011;3454;42.654;23.378;2024-02-04T12:34:00;1.27;;;1.17;;
6832;SDS011;3454;42.654;23.378;2024-02-04T12:36:26;3.87;;;1.00;;
6832;SDS011;3454;42.654;23.378;2024-02-04T12:38:56;1.65;;;1.10;;
6832;SDS011;3454;42.654;23.378;2024-02-04T12:41:26;2.05;;;1.73;;
6832;SDS011;3454;42.654;23.378;2024-02-04T12:43:56;1.80;;;1.42;;
6832;SDS011;3454;42.654;23.378;2024-02-04T12:46:24;0.93;;;0.87;;
6832;SDS011;3454;42.654;23.378;2024-02-04T12:48:53;0.82;;;0.82;;
6832;SDS011;3454;42.654;23.378;2024-02-04T12:51:27;3.22;;;1.50;;
6832;SDS011;3454;42.654;23.378;2024-02-04T12:54:03;2.58;;;1.65;;
6832;SDS011;3454;42.654;23.378;2024-02-04T12:59:26;2.53;;;0.98;;
6832;SDS011;3454;42.654;23.378;2024-02-04T13:02:03;0.90;;;0.90;;
6832;SDS011;3454;42.654;23.378;2024-02-04T13:04:39;2.38;;;1.85;;
6832;SDS011;3454;42.654;23.378;2024-02-04T13:07:11;2.13;;;1.20;;
6832;SDS011;3454;42.654;23.378;2024-02-04T13:09:39;2.47;;;1.70;;
6832;SDS011;3454;42.654;23.378;2024-02-04T13:12:07;1.27;;;1.17;;
6832;SDS011;3454;42.654;23.378;2024-02-04T13:14:35;4.30;;;1.17;;
6832;SDS011;3454;42.654;23.378;2024-02-04T13:17:04;0.73;;;0.73;;
6832;SDS011;3454;42.654;23.378;2024-02-04T13:19:32;1.13;;;1.02;;
6832;SDS011;3454;42.654;23.378;2024-02-04T13:22:06;1.53;;;1.17;;
6832;SDS011;3454;42.654;23.378;2024-02-04T13:24:35;4.10;;;1.37;;
6832;SDS011;3454;42.654;23.378;2024-02-04T13:27:01;3.85;;;2.33;;
6832;SDS011;3454;42.654;23.378;2024-02-04T13:29:28;1.97;;;1.40;;
6832;SDS011;3454;42.654;23.378;2024-02-04T13:31:54;3.83;;;1.10;;
6832;SDS011;3454;42.654;23.378;2024-02-04T13:34:20;2.10;;;1.00;;
6832;SDS011;3454;42.654;23.378;2024-02-04T13:36:46;1.93;;;1.07;;
6832;SDS011;3454;42.654;23.378;2024-02-04T13:39:12;3.17;;;1.07;;
6832;SDS011;3454;42.654;23.378;2024-02-04T13:41:38;2.00;;;1.10;;
6832;SDS011;3454;42.654;23.378;2024-02-04T13:44:04;1.00;;;0.90;;
6832;SDS011;3454;42.654;23.378;2024-02-04T13:46:30;1.37;;;1.13;;
6832;SDS011;3454;42.654;23.378;2024-02-04T13:48:56;1.53;;;1.43;;
6832;SDS011;3454;42.654;23.378;2024-02-04T13:51:21;3.17;;;1.93;;
6832;SDS011;3454;42.654;23.378;2024-02-04T13:53:47;2.37;;;1.30;;
6832;SDS011;3454;42.654;23.378;2024-02-04T13:56:13;1.80;;;1.45;;
6832;SDS011;3454;42.654;23.378;2024-02-04T13:58:38;1.30;;;1.20;;
6832;SDS011;3454;42.654;23.378;2024-02-04T14:01:04;2.27;;;1.40;;
6832;SDS011;3454;42.654;23.378;2024-02-04T14:03:29;2.17;;;1.17;;
6832;SDS011;3454;42.654;23.378;2024-02-04T14:05:55;2.13;;;1.07;;
6832;SDS011;3454;42.654;23.378;2024-02-04T14:08:21;1.47;;;1.37;;
6832;SDS011;3454;42.654;23.378;2024-02-04T14:10:46;3.13;;;1.30;;
6832;SDS011;3454;42.654;23.378;2024-02-04T14:13:12;1.30;;;0.90;;
6832;SDS011;3454;42.654;23.378;2024-02-04T14:15:38;2.13;;;1.67;;
6832;SDS011;3454;42.654;23.378;2024-02-04T14:18:04;1.90;;;1.30;;
6832;SDS011;3454;42.654;23.378;2024-02-04T14:20:30;2.30;;;1.17;;
6832;SDS011;3454;42.654;23.378;2024-02-04T14:22:56;1.50;;;1.40;;
6832;SDS011;3454;42.654;23.378;2024-02-04T14:25:23;1.30;;;1.20;;
6832;SDS011;3454;42.654;23.378;2024-02-04T14:27:49;3.83;;;1.70;;
6832;SDS011;3454;42.654;23.378;2024-02-04T14:30:15;1.77;;;1.50;;
6832;SDS011;3454;42.654;23.378;2024-02-04T14:32:41;2.90;;;1.27;;
6832;SDS011;3454;42.654;23.378;2024-02-04T14:35:07;3.90;;;1.70;;
6832;SDS011;3454;42.654;23.378;2024-02-04T14:37:35;1.50;;;1.20;;
6832;SDS011;3454;42.654;23.378;2024-02-04T14:40:07;1.37;;;1.27;;
6832;SDS011;3454;42.654;23.378;2024-02-04T14:42:34;3.40;;;1.50;;
6832;SDS011;3454;42.654;23.378;2024-02-04T14:44:59;1.70;;;1.27;;
6832;SDS011;3454;42.654;23.378;2024-02-04T14:47:25;3.57;;;1.40;;
6832;SDS011;3454;42.654;23.378;2024-02-04T14:49:52;1.17;;;1.07;;
6832;SDS011;3454;42.654;23.378;2024-02-04T14:52:18;3.50;;;2.07;;
6832;SDS011;3454;42.654;23.378;2024-02-04T14:54:44;3.27;;;1.53;;
6832;SDS011;3454;42.654;23.378;2024-02-04T14:57:10;3.13;;;1.87;;
6832;SDS011;3454;42.654;23.378;2024-02-04T14:59:35;2.70;;;1.30;;
6832;SDS011;3454;42.654;23.378;2024-02-04T15:02:11;1.47;;;1.23;;
6832;SDS011;3454;42.654;23.378;2024-02-04T15:04:38;1.70;;;1.60;;
6832;SDS011;3454;42.654;23.378;2024-02-04T15:07:04;1.10;;;1.00;;
6832;SDS011;3454;42.654;23.378;2024-02-04T15:09:32;1.50;;;1.10;;
6832;SDS011;3454;42.654;23.378;2024-02-04T15:11:58;1.80;;;1.40;;
6832;SDS011;3454;42.654;23.378;2024-02-04T15:14:24;2.53;;;1.50;;